createdAt,value
2018-10-01T00:02:06.068Z,7.13
2018-10-01T00:04:34.277Z,7.10
2018-10-01T00:07:02.145Z,6.80
2018-10-01T00:09:29.927Z,5.00
2018-10-01T00:11:57.851Z,5.20
2018-10-01T00:14:25.631Z,6.80
2018-10-01T00:16:53.408Z,6.50
2018-10-01T00:19:27.280Z,6.00
2018-10-01T00:22:00.960Z,4.87
2018-10-01T00:24:29.061Z,4.27
2018-10-01T00:26:56.866Z,4.67
2018-10-01T00:29:24.750Z,4.17
2018-10-01T00:31:52.532Z,4.23
2018-10-01T00:34:20.271Z,4.40
2018-10-01T00:36:48.076Z,4.03
2018-10-01T00:39:15.851Z,7.60
2018-10-01T00:41:43.650Z,7.57
2018-10-01T00:44:11.461Z,6.27
2018-10-01T00:46:39.513Z,4.40
2018-10-01T00:49:07.301Z,4.83
2018-10-01T00:51:35.079Z,3.70
2018-10-01T00:54:03.244Z,4.30
2018-10-01T00:56:31.068Z,4.27
2018-10-01T00:58:59.167Z,3.87
2018-10-01T01:01:27.473Z,3.80
2018-10-01T01:03:55.244Z,4.53
2018-10-01T01:06:29.555Z,3.27
2018-10-01T01:08:57.343Z,3.23
2018-10-01T01:11:25.115Z,3.67
2018-10-01T01:13:52.922Z,3.10
2018-10-01T01:16:20.679Z,3.27
2018-10-01T01:18:48.463Z,2.67
2018-10-01T01:21:16.243Z,2.80
2018-10-01T01:23:44.035Z,3.03
2018-10-01T01:26:11.856Z,2.53
2018-10-01T01:28:39.874Z,2.47
2018-10-01T01:31:07.676Z,2.47
2018-10-01T01:33:35.447Z,2.47
2018-10-01T01:36:03.531Z,2.23
2018-10-01T01:38:42.560Z,2.63
2018-10-01T01:41:10.739Z,2.93
2018-10-01T01:43:38.583Z,2.80
2018-10-01T01:46:06.471Z,2.40
2018-10-01T01:48:34.351Z,3.00
2018-10-01T01:51:02.137Z,2.50
2018-10-01T01:53:30.013Z,3.10
2018-10-01T01:55:57.832Z,3.23
2018-10-01T01:58:25.656Z,2.70
2018-10-01T02:00:53.536Z,3.20
2018-10-01T02:03:21.345Z,2.83
2018-10-01T02:05:49.134Z,3.03
2018-10-01T02:08:22.904Z,3.40
2018-10-01T02:10:50.728Z,3.23
2018-10-01T02:13:18.512Z,3.30
2018-10-01T02:15:46.326Z,3.87
2018-10-01T02:18:14.094Z,3.00
2018-10-01T02:20:41.974Z,3.63
2018-10-01T02:23:09.774Z,3.20
2018-10-01T02:25:37.602Z,3.10
2018-10-01T02:28:06.019Z,3.13
2018-10-01T02:30:33.935Z,3.47
2018-10-01T02:33:02.115Z,3.30
2018-10-01T02:35:30.078Z,3.43
2018-10-01T02:37:57.950Z,3.50
2018-10-01T02:40:25.799Z,3.17
2018-10-01T02:42:53.578Z,3.60
2018-10-01T02:45:21.460Z,3.00
2018-10-01T02:47:49.368Z,3.30
2018-10-01T02:50:17.088Z,2.93
2018-10-01T02:52:50.683Z,2.90
2018-10-01T02:55:18.524Z,3.73
2018-10-01T02:57:46.675Z,3.30
2018-10-01T03:00:14.500Z,3.10
2018-10-01T03:02:42.276Z,2.90
2018-10-01T03:05:14.387Z,3.20
2018-10-01T03:07:42.193Z,3.23
2018-10-01T03:10:10.037Z,3.60
2018-10-01T03:12:37.839Z,3.40
2018-10-01T03:15:05.720Z,4.00
2018-10-01T03:17:33.590Z,3.67
2018-10-01T03:20:01.394Z,3.73
2018-10-01T03:22:29.224Z,3.40
2018-10-01T03:25:00.356Z,3.23
2018-10-01T03:27:28.290Z,3.80
2018-10-01T03:29:56.104Z,2.97
2018-10-01T03:32:23.935Z,3.90
2018-10-01T03:34:51.789Z,3.87
2018-10-01T03:37:19.636Z,3.70
2018-10-01T03:39:47.503Z,3.80
2018-10-01T03:42:15.355Z,3.83
2018-10-01T03:44:43.221Z,3.93
2018-10-01T03:47:11.387Z,4.40
2018-10-01T03:49:39.195Z,3.60
2018-10-01T03:52:07.028Z,3.17
2018-10-01T03:54:35.176Z,2.93
2018-10-01T03:57:03.062Z,2.83
2018-10-01T03:59:30.889Z,3.70
2018-10-01T04:01:58.701Z,2.93
2018-10-01T04:04:26.508Z,4.07
2018-10-01T04:06:54.357Z,3.40
2018-10-01T04:09:22.581Z,3.97
2018-10-01T04:11:50.417Z,3.70
2018-10-01T04:14:18.223Z,3.90
2018-10-01T04:16:46.041Z,3.33
2018-10-01T04:19:13.831Z,2.97
2018-10-01T04:21:41.672Z,3.30
2018-10-01T04:24:09.880Z,3.40
2018-10-01T04:26:37.741Z,4.00
2018-10-01T04:29:06.047Z,3.30
2018-10-01T04:31:33.846Z,3.40
2018-10-01T04:34:02.308Z,3.40
2018-10-01T04:36:30.215Z,3.00
2018-10-01T04:38:58.023Z,3.23
2018-10-01T04:41:25.941Z,3.23
2018-10-01T04:43:53.940Z,3.90
2018-10-01T04:46:24.907Z,3.50
2018-10-01T04:48:52.696Z,3.37
2018-10-01T04:51:20.539Z,3.70
2018-10-01T04:53:48.331Z,3.60
2018-10-01T04:56:16.140Z,3.57
2018-10-01T04:58:43.976Z,3.13
2018-10-01T05:01:11.783Z,4.20
2018-10-01T05:03:39.699Z,5.00
2018-10-01T05:06:07.873Z,4.30
2018-10-01T05:08:35.659Z,3.90
2018-10-01T05:11:03.724Z,4.23
2018-10-01T05:13:31.599Z,4.90
2018-10-01T05:15:59.519Z,3.90
2018-10-01T05:18:27.643Z,3.63
2018-10-01T05:20:55.426Z,4.53
2018-10-01T05:23:23.195Z,4.87
2018-10-01T05:25:51.008Z,6.07
2018-10-01T05:28:18.812Z,5.07
2018-10-01T05:30:46.635Z,4.50
2018-10-01T05:33:14.422Z,5.33
2018-10-01T05:35:42.267Z,4.70
2018-10-01T05:38:10.079Z,5.10
2018-10-01T05:40:37.886Z,4.17
2018-10-01T05:43:05.743Z,3.97
2018-10-01T05:45:33.573Z,3.90
2018-10-01T05:48:01.394Z,4.73
2018-10-01T05:50:29.248Z,5.03
2018-10-01T05:52:57.039Z,4.10
2018-10-01T05:55:24.879Z,6.17
2018-10-01T05:57:52.763Z,5.10
2018-10-01T06:00:20.687Z,4.70
2018-10-01T06:02:48.551Z,4.40
2018-10-01T06:05:16.396Z,4.70
2018-10-01T06:07:44.211Z,3.97
2018-10-01T06:10:11.992Z,5.20
2018-10-01T06:12:39.859Z,4.60
2018-10-01T06:15:07.749Z,4.87
2018-10-01T06:17:35.583Z,4.60
2018-10-01T06:20:03.868Z,4.83
2018-10-01T06:22:31.970Z,5.37
2018-10-01T06:24:59.819Z,4.90
2018-10-01T06:27:27.731Z,5.50
2018-10-01T06:29:55.645Z,6.07
2018-10-01T06:32:23.458Z,5.70
2018-10-01T06:34:51.347Z,5.63
2018-10-01T06:37:20.180Z,5.50
2018-10-01T06:39:48.054Z,4.63
2018-10-01T06:42:15.994Z,5.77
2018-10-01T06:44:43.756Z,5.50
2018-10-01T06:47:11.592Z,5.17
2018-10-01T06:49:39.375Z,4.80
2018-10-01T06:52:07.276Z,5.03
2018-10-01T06:54:35.500Z,4.60
2018-10-01T06:57:03.613Z,5.97
2018-10-01T06:59:31.628Z,5.90
2018-10-01T07:01:59.514Z,4.63
2018-10-01T07:04:27.401Z,5.93
2018-10-01T07:06:55.295Z,5.17
2018-10-01T07:09:23.104Z,5.20
2018-10-01T07:11:50.895Z,4.80
2018-10-01T07:14:18.710Z,6.50
2018-10-01T07:16:46.861Z,7.00
2018-10-01T07:19:15.026Z,4.93
2018-10-01T07:21:42.923Z,5.47
2018-10-01T07:24:10.722Z,6.43
2018-10-01T07:26:38.527Z,6.17
2018-10-01T07:29:06.315Z,5.40
2018-10-01T07:31:34.177Z,6.63
2018-10-01T07:34:02.390Z,6.37
2018-10-01T07:36:30.333Z,7.17
2018-10-01T07:38:58.248Z,7.10
2018-10-01T07:41:25.979Z,6.47
2018-10-01T07:43:54.307Z,8.13
2018-10-01T07:46:22.256Z,7.07
2018-10-01T07:48:49.999Z,6.60
2018-10-01T07:51:17.847Z,7.50
2018-10-01T07:53:45.720Z,6.40
2018-10-01T07:56:13.957Z,7.30
2018-10-01T07:58:41.899Z,7.13
2018-10-01T08:01:09.725Z,6.90
2018-10-01T08:03:37.785Z,7.27
2018-10-01T08:06:05.763Z,7.83
2018-10-01T08:08:33.618Z,7.30
2018-10-01T08:11:01.419Z,6.87
2018-10-01T08:13:29.777Z,6.83
2018-10-01T08:16:01.631Z,7.70
2018-10-01T08:18:29.535Z,8.07
2018-10-01T08:20:57.547Z,7.30
2018-10-01T08:23:25.371Z,7.93
2018-10-01T08:25:53.179Z,9.37
2018-10-01T08:28:21.007Z,8.10
2018-10-01T08:30:48.906Z,9.50
2018-10-01T08:33:16.764Z,8.67
2018-10-01T08:35:44.568Z,8.90
2018-10-01T08:38:12.884Z,8.40
2018-10-01T08:40:40.585Z,8.90
2018-10-01T08:43:08.439Z,7.23
2018-10-01T08:45:36.368Z,7.20
2018-10-01T08:48:04.330Z,7.50
2018-10-01T08:51:39.742Z,7.97
2018-10-01T08:54:31.244Z,6.47
2018-10-01T08:56:59.420Z,7.10
2018-10-01T08:59:27.333Z,7.83
2018-10-01T09:01:55.463Z,7.87
2018-10-01T09:04:25.719Z,7.97
2018-10-01T09:06:53.648Z,7.13
2018-10-01T09:09:21.413Z,7.33
2018-10-01T09:11:49.242Z,7.73
2018-10-01T09:14:17.171Z,7.77
2018-10-01T09:16:44.875Z,7.03
2018-10-01T09:19:12.696Z,7.40
2018-10-01T09:21:40.520Z,7.87
2018-10-01T09:24:09.471Z,7.27
2018-10-01T09:26:37.564Z,6.97
2018-10-01T09:29:05.671Z,7.00
2018-10-01T09:31:33.472Z,7.20
2018-10-01T09:34:01.339Z,6.87
2018-10-01T09:36:32.703Z,7.63
2018-10-01T09:39:00.799Z,7.53
2018-10-01T09:41:28.719Z,7.23
2018-10-01T09:43:56.606Z,7.60
2018-10-01T09:46:24.461Z,6.70
2018-10-01T09:48:52.317Z,6.37
2018-10-01T09:51:20.223Z,6.27
2018-10-01T09:53:48.187Z,5.97
2018-10-01T09:56:16.154Z,7.17
2018-10-01T09:58:44.090Z,7.00
2018-10-01T10:01:13.477Z,7.30
2018-10-01T10:03:41.343Z,5.70
2018-10-01T10:06:09.303Z,6.13
2018-10-01T10:08:37.620Z,4.90
2018-10-01T10:11:06.131Z,5.77
2018-10-01T10:13:34.125Z,5.83
2018-10-01T10:16:02.211Z,5.83
2018-10-01T10:18:30.118Z,4.77
2018-10-01T10:20:57.941Z,4.50
2018-10-01T10:23:26.091Z,5.50
2018-10-01T10:25:54.083Z,4.60
2018-10-01T10:28:22.209Z,5.67
2018-10-01T10:30:50.084Z,5.23
2018-10-01T10:33:17.956Z,4.63
2018-10-01T10:35:46.079Z,4.80
2018-10-01T10:38:14.119Z,5.77
2018-10-01T10:40:41.901Z,5.43
2018-10-01T10:43:09.737Z,5.00
2018-10-01T10:45:37.605Z,4.70
2018-10-01T10:48:05.955Z,4.70
2018-10-01T10:50:40.756Z,4.60
2018-10-01T10:53:08.590Z,4.70
2018-10-01T10:55:36.419Z,4.57
2018-10-01T10:58:04.264Z,4.20
2018-10-01T11:00:32.083Z,4.30
2018-10-01T11:02:59.937Z,4.43
2018-10-01T11:05:27.744Z,4.83
2018-10-01T11:07:55.514Z,3.73
2018-10-01T11:10:29.259Z,5.13
2018-10-01T11:12:57.090Z,4.23
2018-10-01T11:15:24.892Z,4.57
2018-10-01T11:17:52.742Z,4.63
2018-10-01T11:20:20.753Z,4.40
2018-10-01T11:22:48.500Z,3.93
2018-10-01T11:25:16.413Z,3.40
2018-10-01T11:27:44.381Z,4.03
2018-10-01T11:30:12.163Z,3.80
2018-10-01T11:32:40.089Z,3.57
2018-10-01T11:35:08.339Z,3.03
2018-10-01T11:37:36.294Z,3.53
2018-10-01T11:40:04.739Z,3.63
2018-10-01T11:42:32.599Z,3.83
2018-10-01T11:45:00.466Z,3.90
2018-10-01T11:47:28.438Z,3.70
2018-10-01T11:49:56.263Z,3.73
2018-10-01T11:52:24.289Z,4.50
2018-10-01T11:54:52.223Z,4.27
2018-10-01T11:57:20.518Z,4.10
2018-10-01T11:59:48.555Z,4.17
2018-10-01T12:02:19.380Z,5.13
2018-10-01T12:04:47.881Z,4.73
2018-10-01T12:07:16.103Z,4.00
2018-10-01T12:09:44.280Z,4.60
2018-10-01T12:12:16.427Z,3.73
2018-10-01T12:14:44.616Z,3.47
2018-10-01T12:17:13.348Z,3.17
2018-10-01T12:19:41.159Z,4.17
2018-10-01T12:22:09.302Z,5.63
2018-10-01T12:24:37.319Z,4.50
2018-10-01T12:27:05.568Z,3.10
2018-10-01T12:29:33.439Z,2.93
2018-10-01T12:32:01.327Z,2.60
2018-10-01T12:34:29.432Z,3.77
2018-10-01T12:36:57.289Z,3.07
2018-10-01T12:39:25.174Z,3.40
2018-10-01T12:41:53.216Z,3.57
2018-10-01T12:44:21.057Z,4.40
2018-10-01T12:46:49.042Z,4.07
2018-10-01T12:49:16.920Z,3.27
2018-10-01T12:51:44.972Z,4.07
2018-10-01T12:54:12.747Z,4.50
2018-10-01T12:56:40.576Z,4.03
2018-10-01T13:01:48.344Z,3.53
2018-10-01T13:04:16.131Z,4.17
2018-10-01T13:06:44.122Z,3.80
2018-10-01T13:09:12.398Z,3.30
2018-10-01T13:11:40.851Z,3.67
2018-10-01T13:14:08.960Z,2.83
2018-10-01T13:16:37.127Z,2.90
2018-10-01T13:19:05.023Z,2.93
2018-10-01T13:21:32.855Z,2.57
2018-10-01T13:24:00.791Z,2.90
2018-10-01T13:26:28.610Z,2.70
2018-10-01T13:28:56.556Z,3.00
2018-10-01T13:31:24.399Z,2.50
2018-10-01T13:33:52.502Z,2.30
2018-10-01T13:36:20.505Z,2.20
2018-10-01T13:38:48.207Z,2.00
2018-10-01T13:41:19.303Z,1.80
2018-10-01T13:43:47.239Z,1.80
2018-10-01T13:46:15.071Z,2.20
2018-10-01T13:48:42.943Z,2.50
2018-10-01T13:51:10.751Z,2.37
2018-10-01T13:54:10.740Z,4.23
2018-10-01T13:56:48.104Z,2.43
2018-10-01T13:59:16.019Z,2.80
2018-10-01T14:01:43.937Z,2.80
2018-10-01T14:04:11.761Z,3.37
2018-10-01T14:06:39.689Z,2.90
2018-10-01T14:09:09.527Z,3.07
2018-10-01T14:11:37.439Z,3.30
2018-10-01T14:14:05.469Z,2.40
2018-10-01T14:16:33.247Z,2.80
2018-10-01T14:19:01.162Z,2.67
2018-10-01T14:21:28.949Z,2.50
2018-10-01T14:23:56.951Z,2.57
2018-10-01T14:26:25.375Z,2.70
2018-10-01T14:28:53.183Z,2.53
2018-10-01T14:31:21.171Z,3.10
2018-10-01T14:33:48.945Z,3.30
2018-10-01T14:36:16.769Z,2.90
2018-10-01T14:38:44.527Z,3.03
2018-10-01T14:41:12.315Z,2.50
2018-10-01T14:43:40.207Z,2.40
2018-10-01T14:46:08.032Z,2.07
2018-10-01T14:48:35.896Z,2.33
2018-10-01T14:51:03.656Z,2.60
2018-10-01T14:53:31.399Z,2.50
2018-10-01T14:55:59.700Z,2.20
2018-10-01T14:58:27.547Z,2.10
2018-10-01T15:00:55.461Z,2.47
2018-10-01T15:03:23.331Z,2.80
2018-10-01T15:05:51.125Z,2.80
2018-10-01T15:08:19.264Z,2.77
2018-10-01T15:10:47.101Z,3.23
2018-10-01T15:13:15.564Z,2.83
2018-10-01T15:15:44.192Z,3.13
2018-10-01T15:18:12.026Z,2.70
2018-10-01T15:20:39.839Z,2.90
2018-10-01T15:23:07.767Z,2.43
2018-10-01T15:25:35.568Z,2.90
2018-10-01T15:28:03.429Z,2.40
2018-10-01T15:30:31.260Z,2.70
2018-10-01T15:32:59.069Z,2.53
2018-10-01T15:35:27.009Z,2.13
2018-10-01T15:37:54.905Z,2.37
2018-10-01T15:40:22.780Z,2.90
2018-10-01T15:42:50.819Z,2.53
2018-10-01T15:45:18.639Z,2.03
2018-10-01T15:47:46.476Z,2.10
2018-10-01T15:50:14.278Z,2.30
2018-10-01T15:52:42.066Z,2.60
2018-10-01T15:55:09.847Z,2.90
2018-10-01T15:57:37.661Z,2.83
2018-10-01T16:00:05.504Z,3.07
2018-10-01T16:02:34.082Z,2.80
2018-10-01T16:05:01.934Z,2.87
2018-10-01T16:07:29.794Z,3.00
2018-10-01T16:09:57.619Z,2.40
2018-10-01T16:12:25.835Z,2.60
2018-10-01T16:14:53.687Z,2.73
2018-10-01T16:17:21.500Z,3.00
2018-10-01T16:19:49.352Z,3.00
2018-10-01T16:22:17.270Z,2.63
2018-10-01T16:27:18.682Z,2.73
2018-10-01T16:29:46.436Z,3.00
2018-10-01T16:32:14.332Z,3.23
2018-10-01T16:34:42.135Z,2.63
2018-10-01T16:37:13.111Z,2.67
2018-10-01T16:39:41.279Z,2.53
2018-10-01T16:47:17.444Z,3.03
2018-10-01T16:49:45.339Z,3.17
2018-10-01T16:52:13.290Z,2.90
2018-10-01T16:54:41.585Z,3.07
2018-10-01T16:57:09.437Z,3.00
2018-10-01T16:59:37.337Z,3.00
2018-10-01T17:02:05.160Z,4.07
2018-10-01T17:04:33.471Z,3.53
2018-10-01T17:07:01.684Z,3.13
2018-10-01T17:09:29.462Z,3.53
2018-10-01T17:11:57.572Z,3.60
2018-10-01T17:14:25.548Z,3.20
2018-10-01T17:16:53.379Z,2.90
2018-10-01T17:19:21.619Z,2.67
2018-10-01T17:21:49.475Z,4.20
2018-10-01T17:24:17.347Z,3.40
2018-10-01T17:26:45.236Z,3.00
2018-10-01T17:29:13.035Z,2.67
2018-10-01T17:31:40.823Z,2.90
2018-10-01T17:34:08.736Z,5.93
2018-10-01T17:36:37.132Z,11.50
2018-10-01T17:39:08.055Z,6.77
2018-10-01T17:41:35.972Z,4.70
2018-10-01T17:44:03.920Z,5.93
2018-10-01T17:46:31.826Z,2.93
2018-10-01T17:48:59.599Z,2.40
2018-10-01T17:51:28.075Z,1.70
2018-10-01T17:53:56.314Z,1.70
2018-10-01T17:56:24.223Z,1.30
2018-10-01T17:58:52.049Z,1.80
2018-10-01T18:01:19.860Z,2.20
2018-10-01T18:03:47.672Z,2.37
2018-10-01T18:06:15.637Z,5.47
2018-10-01T18:08:43.604Z,6.53
2018-10-01T18:11:11.499Z,4.60
2018-10-01T18:13:39.315Z,2.33
2018-10-01T18:16:07.530Z,2.13
2018-10-01T18:18:35.393Z,1.60
2018-10-01T18:21:03.403Z,1.97
2018-10-01T18:23:31.239Z,1.77
2018-10-01T18:25:59.473Z,1.90
2018-10-01T18:28:27.403Z,1.37
2018-10-01T18:30:55.326Z,1.80
2018-10-01T18:33:23.138Z,2.00
2018-10-01T18:35:51.065Z,2.00
2018-10-01T18:38:18.988Z,2.17
2018-10-01T18:40:46.871Z,4.10
2018-10-01T18:43:14.679Z,3.13
2018-10-01T18:45:42.628Z,2.57
2018-10-01T18:48:10.549Z,3.40
2018-10-01T18:50:38.458Z,2.83
2018-10-01T18:53:06.811Z,2.70
2018-10-01T18:55:34.662Z,3.03
2018-10-01T18:58:02.743Z,2.63
2018-10-01T19:00:31.434Z,2.87
2018-10-01T19:03:00.934Z,3.40
2018-10-01T19:05:29.645Z,3.83
2018-10-01T19:08:06.874Z,4.50
2018-10-01T19:10:38.969Z,3.90
2018-10-01T19:13:14.167Z,2.77
2018-10-01T19:15:44.711Z,3.13
2018-10-01T19:18:12.819Z,2.60
2018-10-01T19:20:40.680Z,1.90
2018-10-01T19:23:08.499Z,1.87
2018-10-01T19:25:36.332Z,1.60
2018-10-01T19:28:04.188Z,1.37
2018-10-01T19:30:32.144Z,1.57
2018-10-01T19:32:59.912Z,1.43
2018-10-01T19:35:27.866Z,1.20
2018-10-01T19:37:55.952Z,1.47
2018-10-01T19:40:24.099Z,1.60
2018-10-01T19:42:51.923Z,1.47
2018-10-01T19:45:19.881Z,1.53
2018-10-01T19:47:47.819Z,1.20
2018-10-01T19:50:15.671Z,1.47
2018-10-01T19:52:43.611Z,1.63
2018-10-01T19:55:12.603Z,1.63
2018-10-01T19:57:40.555Z,1.80
2018-10-01T20:00:08.499Z,1.67
2018-10-01T20:02:36.295Z,2.20
2018-10-01T20:05:04.846Z,2.10
2018-10-01T20:07:32.792Z,1.80
2018-10-01T20:10:00.912Z,1.57
2018-10-01T20:12:28.784Z,1.60
2018-10-01T20:14:56.618Z,1.40
2018-10-01T20:17:24.624Z,1.40
2018-10-01T20:19:56.324Z,1.57
2018-10-01T20:22:24.173Z,1.37
2018-10-01T20:24:52.182Z,1.53
2018-10-01T20:27:20.073Z,1.20
2018-10-01T20:29:48.021Z,1.30
2018-10-01T20:32:16.073Z,1.27
2018-10-01T20:34:44.163Z,1.90
2018-10-01T20:37:24.676Z,4.53
2018-10-01T20:39:52.548Z,3.57
2018-10-01T20:42:20.418Z,2.10
2018-10-01T20:44:48.295Z,1.50
2018-10-01T20:47:16.394Z,1.43
2018-10-01T20:49:44.509Z,1.40
2018-10-01T20:52:12.424Z,2.00
2018-10-01T20:54:40.227Z,1.40
2018-10-01T20:57:08.084Z,1.60
2018-10-01T20:59:36.142Z,1.43
2018-10-01T21:02:03.927Z,1.40
2018-10-01T21:04:31.707Z,1.90
2018-10-01T21:06:59.514Z,1.30
2018-10-01T21:09:27.345Z,1.80
2018-10-01T21:11:55.252Z,1.70
2018-10-01T21:14:23.177Z,1.50
2018-10-01T21:16:51.009Z,1.83
2018-10-01T21:19:18.924Z,1.67
2018-10-01T21:21:46.743Z,2.10
2018-10-01T21:24:14.579Z,1.50
2018-10-01T21:26:42.435Z,1.50
2018-10-01T21:29:10.659Z,2.13
2018-10-01T21:31:38.800Z,1.63
2018-10-01T21:34:06.845Z,1.63
2018-10-01T21:36:34.680Z,2.07
2018-10-01T21:39:03.227Z,2.07
2018-10-01T21:41:31.420Z,1.47
2018-10-01T21:43:59.294Z,2.00
2018-10-01T21:46:27.091Z,1.50
2018-10-01T21:48:55.931Z,1.70
2018-10-01T21:51:23.723Z,1.53
2018-10-01T21:53:51.948Z,1.80
2018-10-01T21:56:19.761Z,1.90
2018-10-01T21:58:47.555Z,1.73
2018-10-01T22:01:21.100Z,1.73
2018-10-01T22:03:48.916Z,1.70
2018-10-01T22:06:16.803Z,1.50
2018-10-01T22:08:44.663Z,1.53
2018-10-01T22:11:12.924Z,1.57
2018-10-01T22:13:40.759Z,1.53
2018-10-01T22:16:08.683Z,1.40
2018-10-01T22:18:36.487Z,1.43
2018-10-01T22:21:04.318Z,2.07
2018-10-01T22:23:32.260Z,2.03
2018-10-01T22:26:00.076Z,2.00
2018-10-01T22:28:28.215Z,1.60
2018-10-01T22:30:56.041Z,1.80
2018-10-01T22:33:23.893Z,1.70
2018-10-01T22:35:52.024Z,1.93
2018-10-01T22:38:19.863Z,1.70
2018-10-01T22:40:47.699Z,1.73
2018-10-01T22:43:15.568Z,1.97
2018-10-01T22:45:43.373Z,1.70
2018-10-01T22:48:11.201Z,1.10
2018-10-01T22:50:42.366Z,1.80
2018-10-01T22:53:10.225Z,1.80
2018-10-01T22:55:38.791Z,1.50
2018-10-01T22:58:06.607Z,2.50
2018-10-01T23:00:34.463Z,1.87
2018-10-01T23:03:02.251Z,2.10
2018-10-01T23:05:30.092Z,2.17
2018-10-01T23:07:57.914Z,2.40
2018-10-01T23:10:25.746Z,2.10
2018-10-01T23:12:53.567Z,1.80
2018-10-01T23:15:21.425Z,1.60
2018-10-01T23:17:49.275Z,1.50
2018-10-01T23:20:17.104Z,1.90
2018-10-01T23:22:44.940Z,2.30
2018-10-01T23:25:12.827Z,1.57
2018-10-01T23:27:40.607Z,1.50
2018-10-01T23:30:08.421Z,1.80
2018-10-01T23:32:36.255Z,1.63
2018-10-01T23:35:04.142Z,2.13
2018-10-01T23:37:32.002Z,2.03
2018-10-01T23:40:00.144Z,1.87
2018-10-01T23:42:28.081Z,1.60
2018-10-01T23:44:55.959Z,1.80
2018-10-01T23:47:30.530Z,1.67
2018-10-01T23:49:58.367Z,1.63
2018-10-01T23:52:26.199Z,1.60
2018-10-01T23:54:53.988Z,1.87
2018-10-01T23:57:21.863Z,1.80
2018-10-01T23:59:49.648Z,1.90
